South Main, California
Current Conditions -  °F | °C
As of 3:53 AM on Monday 20 Oct 2014 (Local Time) from KSNA Reporting Station
Overcast Overcast  
Wind Chill: 70°   Ceiling: 1500
Heat Index: 70°   Visibility: 10mi
Dew Point: 61°   Wind: 3mph
Humidity: 73%   Direction: 10°N
Pressure: 29.88"   Gusts: NA
Location:  33.7155°N, 117.871°W
Report Text: KSNA 201053Z AUTO 01003KT 10SM OVC015 21/16 A2988 RMK AO2 SLP116 T02110161 TSNO $
Loading
Personal Weather Stations






























Interactive Weather Map
Tropical Storm Tracking
New forecast layout! Learn more

10-Day Weather Forecast

Advertisements
Track Severe Weather on mobile